sensor_id;sensor_type;location;lat;lon;timestamp;pressure;altitude;pressure_sealevel;temperature;humidity
59951;BME280;45812;53.540;9.774;2023-03-26T00:01:40;100186.06;;;6.73;100.00
59951;BME280;45812;53.540;9.774;2023-03-26T00:04:11;100195.97;;;6.53;100.00
59951;BME280;45812;53.540;9.774;2023-03-26T00:06:37;100192.50;;;6.53;100.00
59951;BME280;45812;53.540;9.774;2023-03-26T00:09:06;100192.34;;;6.54;100.00
59951;BME280;45812;53.540;9.774;2023-03-26T00:11:33;100198.66;;;6.44;100.00
59951;BME280;45812;53.540;9.774;2023-03-26T00:13:59;100193.00;;;6.38;100.00
59951;BME280;45812;53.540;9.774;2023-03-26T00:16:27;100196.13;;;6.52;100.00
59951;BME280;45812;53.540;9.774;2023-03-26T00:18:52;100210.06;;;6.44;100.00
59951;BME280;45812;53.540;9.774;2023-03-26T00:21:20;100214.63;;;6.34;100.00
59951;BME280;45812;53.540;9.774;2023-03-26T00:23:46;100212.03;;;6.42;100.00
59951;BME280;45812;53.540;9.774;2023-03-26T00:26:14;100211.34;;;6.40;100.00
59951;BME280;45812;53.540;9.774;2023-03-26T00:28:41;100222.69;;;6.50;100.00
59951;BME280;45812;53.540;9.774;2023-03-26T00:31:09;100228.19;;;6.21;100.00
59951;BME280;45812;53.540;9.774;2023-03-26T00:33:35;100234.97;;;6.24;100.00
59951;BME280;45812;53.540;9.774;2023-03-26T00:36:07;100236.56;;;6.17;100.00
59951;BME280;45812;53.540;9.774;2023-03-26T00:38:35;100237.91;;;6.21;100.00
59951;BME280;45812;53.540;9.774;2023-03-26T00:41:04;100234.59;;;6.19;100.00
59951;BME280;45812;53.540;9.774;2023-03-26T00:43:31;100242.75;;;6.25;100.00
59951;BME280;45812;53.540;9.774;2023-03-26T00:45:57;100249.41;;;6.29;100.00
59951;BME280;45812;53.540;9.774;2023-03-26T00:48:23;100244.78;;;6.31;100.00
59951;BME280;45812;53.540;9.774;2023-03-26T00:50:49;100253.66;;;6.40;100.00
59951;BME280;45812;53.540;9.774;2023-03-26T00:53:16;100258.41;;;6.36;100.00
59951;BME280;45812;53.540;9.774;2023-03-26T00:55:45;100262.72;;;6.37;100.00
59951;BME280;45812;53.540;9.774;2023-03-26T00:58:12;100266.53;;;6.25;100.00
59951;BME280;45812;53.540;9.774;2023-03-26T01:00:45;100282.31;;;6.17;100.00
59951;BME280;45812;53.540;9.774;2023-03-26T01:03:14;100251.44;;;6.18;100.00
59951;BME280;45812;53.540;9.774;2023-03-26T01:05:43;100270.50;;;6.12;100.00
59951;BME280;45812;53.540;9.774;2023-03-26T01:08:24;100273.28;;;6.10;100.00
59951;BME280;45812;53.540;9.774;2023-03-26T01:10:52;100280.84;;;6.05;100.00
59951;BME280;45812;53.540;9.774;2023-03-26T01:13:22;100278.88;;;6.07;100.00
59951;BME280;45812;53.540;9.774;2023-03-26T01:15:48;100280.91;;;5.95;100.00
59951;BME280;45812;53.540;9.774;2023-03-26T01:18:20;100281.13;;;6.02;100.00
59951;BME280;45812;53.540;9.774;2023-03-26T01:20:47;100281.38;;;6.08;100.00
59951;BME280;45812;53.540;9.774;2023-03-26T01:23:19;100290.97;;;6.10;100.00
59951;BME280;45812;53.540;9.774;2023-03-26T01:25:52;100280.50;;;6.18;100.00
59951;BME280;45812;53.540;9.774;2023-03-26T01:28:20;100289.63;;;6.23;100.00
59951;BME280;45812;53.540;9.774;2023-03-26T01:30:58;100293.94;;;6.24;100.00
59951;BME280;45812;53.540;9.774;2023-03-26T01:41:19;100299.16;;;6.16;100.00
59951;BME280;45812;53.540;9.774;2023-03-26T01:43:57;100300.44;;;6.30;100.00
59951;BME280;45812;53.540;9.774;2023-03-26T01:46:25;100296.88;;;6.21;100.00
59951;BME280;45812;53.540;9.774;2023-03-26T01:48:51;100303.19;;;6.11;100.00
59951;BME280;45812;53.540;9.774;2023-03-26T01:51:32;100303.47;;;6.07;100.00
59951;BME280;45812;53.540;9.774;2023-03-26T01:54:03;100303.28;;;5.91;100.00
59951;BME280;45812;53.540;9.774;2023-03-26T01:56:44;100302.13;;;6.03;100.00
59951;BME280;45812;53.540;9.774;2023-03-26T01:59:34;100309.66;;;5.98;100.00
59951;BME280;45812;53.540;9.774;2023-03-26T02:02:29;100297.22;;;6.08;100.00
59951;BME280;45812;53.540;9.774;2023-03-26T02:05:07;100298.78;;;6.01;100.00
59951;BME280;45812;53.540;9.774;2023-03-26T02:07:42;100304.66;;;5.95;100.00
59951;BME280;45812;53.540;9.774;2023-03-26T02:10:17;100297.56;;;5.86;100.00
59951;BME280;45812;53.540;9.774;2023-03-26T02:12:45;100297.56;;;5.96;100.00
59951;BME280;45812;53.540;9.774;2023-03-26T02:15:11;100296.88;;;5.84;100.00
59951;BME280;45812;53.540;9.774;2023-03-26T02:17:36;100297.88;;;5.73;100.00
59951;BME280;45812;53.540;9.774;2023-03-26T02:20:10;100295.84;;;5.58;100.00
59951;BME280;45812;53.540;9.774;2023-03-26T02:22:37;100292.06;;;5.70;100.00
59951;BME280;45812;53.540;9.774;2023-03-26T02:25:08;100290.25;;;5.70;100.00
59951;BME280;45812;53.540;9.774;2023-03-26T02:27:34;100302.31;;;5.73;100.00
59951;BME280;45812;53.540;9.774;2023-03-26T02:29:59;100289.72;;;5.67;100.00
59951;BME280;45812;53.540;9.774;2023-03-26T02:32:25;100294.69;;;5.70;100.00
59951;BME280;45812;53.540;9.774;2023-03-26T02:34:50;100288.81;;;5.76;100.00
59951;BME280;45812;53.540;9.774;2023-03-26T02:37:15;100303.13;;;5.83;100.00
59951;BME280;45812;53.540;9.774;2023-03-26T02:39:43;100301.34;;;5.74;100.00
59951;BME280;45812;53.540;9.774;2023-03-26T02:42:08;100301.59;;;5.90;100.00
59951;BME280;45812;53.540;9.774;2023-03-26T02:44:33;100306.88;;;5.90;100.00
59951;BME280;45812;53.540;9.774;2023-03-26T02:46:59;100296.16;;;6.01;100.00
59951;BME280;45812;53.540;9.774;2023-03-26T02:49:24;100305.38;;;5.78;100.00
59951;BME280;45812;53.540;9.774;2023-03-26T02:51:50;100310.84;;;5.57;100.00
59951;BME280;45812;53.540;9.774;2023-03-26T02:54:20;100313.94;;;5.43;100.00
59951;BME280;45812;53.540;9.774;2023-03-26T02:56:45;100317.56;;;5.42;100.00
59951;BME280;45812;53.540;9.774;2023-03-26T02:59:10;100316.00;;;5.59;100.00
59951;BME280;45812;53.540;9.774;2023-03-26T03:01:36;100325.31;;;5.63;100.00
59951;BME280;45812;53.540;9.774;2023-03-26T03:04:07;100316.84;;;5.50;100.00
59951;BME280;45812;53.540;9.774;2023-03-26T03:06:32;100323.34;;;5.55;100.00
59951;BME280;45812;53.540;9.774;2023-03-26T03:08:57;100313.63;;;5.56;100.00
59951;BME280;45812;53.540;9.774;2023-03-26T03:11:23;100305.34;;;5.41;100.00
59951;BME280;45812;53.540;9.774;2023-03-26T03:13:52;100311.75;;;5.29;100.00
59951;BME280;45812;53.540;9.774;2023-03-26T03:16:17;100307.97;;;5.31;100.00
59951;BME280;45812;53.540;9.774;2023-03-26T03:18:44;100301.03;;;5.40;100.00
59951;BME280;45812;53.540;9.774;2023-03-26T03:21:09;100294.22;;;5.37;100.00
59951;BME280;45812;53.540;9.774;2023-03-26T03:23:34;100289.50;;;5.41;100.00
59951;BME280;45812;53.540;9.774;2023-03-26T03:26:00;100287.25;;;5.36;100.00
59951;BME280;45812;53.540;9.774;2023-03-26T03:28:26;100292.28;;;5.39;100.00
59951;BME280;45812;53.540;9.774;2023-03-26T03:30:51;100304.91;;;5.45;100.00
59951;BME280;45812;53.540;9.774;2023-03-26T03:33:18;100303.56;;;5.22;100.00
59951;BME280;45812;53.540;9.774;2023-03-26T03:35:45;100308.69;;;5.24;100.00
59951;BME280;45812;53.540;9.774;2023-03-26T03:38:10;100291.03;;;5.43;100.00
59951;BME280;45812;53.540;9.774;2023-03-26T03:40:35;100306.69;;;5.55;100.00
59951;BME280;45812;53.540;9.774;2023-03-26T03:43:01;100305.16;;;5.62;100.00
59951;BME280;45812;53.540;9.774;2023-03-26T03:45:26;100297.22;;;5.62;100.00
59951;BME280;45812;53.540;9.774;2023-03-26T03:47:51;100301.25;;;5.56;100.00
59951;BME280;45812;53.540;9.774;2023-03-26T03:50:17;100293.22;;;5.48;100.00
59951;BME280;45812;53.540;9.774;2023-03-26T03:52:42;100290.88;;;5.35;100.00
59951;BME280;45812;53.540;9.774;2023-03-26T03:55:07;100299.63;;;5.45;100.00
59951;BME280;45812;53.540;9.774;2023-03-26T03:57:34;100306.72;;;5.35;100.00
59951;BME280;45812;53.540;9.774;2023-03-26T04:00:00;100299.34;;;5.39;100.00
59951;BME280;45812;53.540;9.774;2023-03-26T04:02:25;100305.16;;;5.52;100.00
59951;BME280;45812;53.540;9.774;2023-03-26T04:04:55;100303.38;;;5.43;100.00
59951;BME280;45812;53.540;9.774;2023-03-26T04:07:23;100305.88;;;5.44;100.00
59951;BME280;45812;53.540;9.774;2023-03-26T04:09:49;100309.66;;;5.42;100.00
59951;BME280;45812;53.540;9.774;2023-03-26T04:12:14;100304.75;;;5.37;100.00
59951;BME280;45812;53.540;9.774;2023-03-26T04:14:40;100292.88;;;5.04;100.00
59951;BME280;45812;53.540;9.774;2023-03-26T04:17:05;100298.41;;;5.11;100.00
59951;BME280;45812;53.540;9.774;2023-03-26T04:19:30;100303.41;;;5.14;100.00
59951;BME280;45812;53.540;9.774;2023-03-26T04:21:56;100294.25;;;4.99;100.00
59951;BME280;45812;53.540;9.774;2023-03-26T04:24:29;100303.13;;;4.78;100.00
59951;BME280;45812;53.540;9.774;2023-03-26T04:26:58;100312.56;;;4.71;100.00
59951;BME280;45812;53.540;9.774;2023-03-26T04:29:26;100301.59;;;4.56;100.00
59951;BME280;45812;53.540;9.774;2023-03-26T04:31:53;100297.84;;;4.78;100.00
59951;BME280;45812;53.540;9.774;2023-03-26T04:34:23;100291.19;;;4.94;100.00
59951;BME280;45812;53.540;9.774;2023-03-26T04:36:49;100302.16;;;4.99;100.00
59951;BME280;45812;53.540;9.774;2023-03-26T04:39:18;100295.94;;;4.90;100.00
59951;BME280;45812;53.540;9.774;2023-03-26T04:41:45;100298.72;;;4.89;100.00
59951;BME280;45812;53.540;9.774;2023-03-26T04:44:11;100295.78;;;4.92;100.00
59951;BME280;45812;53.540;9.774;2023-03-26T04:46:38;100298.00;;;4.96;100.00
59951;BME280;45812;53.540;9.774;2023-03-26T04:49:07;100298.56;;;4.90;100.00
59951;BME280;45812;53.540;9.774;2023-03-26T04:51:36;100308.56;;;4.96;100.00
59951;BME280;45812;53.540;9.774;2023-03-26T04:54:03;100295.38;;;4.86;100.00
59951;BME280;45812;53.540;9.774;2023-03-26T04:57:01;100306.75;;;5.06;100.00
59951;BME280;45812;53.540;9.774;2023-03-26T04:59:29;100312.56;;;4.81;100.00
59951;BME280;45812;53.540;9.774;2023-03-26T05:01:59;100310.34;;;4.67;100.00
59951;BME280;45812;53.540;9.774;2023-03-26T05:04:25;100299.69;;;4.88;100.00
59951;BME280;45812;53.540;9.774;2023-03-26T05:06:53;100300.38;;;4.90;100.00
59951;BME280;45812;53.540;9.774;2023-03-26T05:09:20;100305.31;;;4.54;100.00
59951;BME280;45812;53.540;9.774;2023-03-26T05:11:45;100294.38;;;4.49;100.00
59951;BME280;45812;53.540;9.774;2023-03-26T05:14:12;100296.72;;;4.52;100.00
59951;BME280;45812;53.540;9.774;2023-03-26T05:16:37;100295.59;;;4.45;100.00
59951;BME280;45812;53.540;9.774;2023-03-26T05:19:03;100285.97;;;4.24;100.00
59951;BME280;45812;53.540;9.774;2023-03-26T05:21:29;100286.44;;;4.39;100.00
59951;BME280;45812;53.540;9.774;2023-03-26T05:23:54;100290.88;;;4.39;100.00
59951;BME280;45812;53.540;9.774;2023-03-26T05:26:19;100302.13;;;4.50;100.00
59951;BME280;45812;53.540;9.774;2023-03-26T05:28:45;100305.47;;;4.52;100.00
59951;BME280;45812;53.540;9.774;2023-03-26T05:31:10;100309.34;;;4.58;100.00
59951;BME280;45812;53.540;9.774;2023-03-26T05:33:35;100310.88;;;4.51;100.00
59951;BME280;45812;53.540;9.774;2023-03-26T05:36:10;100320.91;;;4.67;100.00
59951;BME280;45812;53.540;9.774;2023-03-26T05:38:39;100310.91;;;4.80;100.00
59951;BME280;45812;53.540;9.774;2023-03-26T05:41:08;100312.59;;;4.91;100.00
59951;BME280;45812;53.540;9.774;2023-03-26T05:43:34;100318.97;;;4.88;100.00
59951;BME280;45812;53.540;9.774;2023-03-26T05:46:00;100322.31;;;4.90;100.00
59951;BME280;45812;53.540;9.774;2023-03-26T05:48:25;100318.00;;;4.89;100.00
59951;BME280;45812;53.540;9.774;2023-03-26T05:50:53;100327.56;;;5.00;100.00
59951;BME280;45812;53.540;9.774;2023-03-26T05:53:19;100324.94;;;5.00;100.00
59951;BME280;45812;53.540;9.774;2023-03-26T05:55:46;100319.41;;;5.03;100.00
59951;BME280;45812;53.540;9.774;2023-03-26T05:58:14;100319.66;;;5.09;100.00
59951;BME280;45812;53.540;9.774;2023-03-26T06:00:40;100329.25;;;5.10;100.00
59951;BME280;45812;53.540;9.774;2023-03-26T06:03:05;100320.78;;;5.26;100.00
59951;BME280;45812;53.540;9.774;2023-03-26T06:05:36;100328.13;;;5.13;100.00
59951;BME280;45812;53.540;9.774;2023-03-26T06:08:02;100329.81;;;5.24;100.00
59951;BME280;45812;53.540;9.774;2023-03-26T06:10:28;100320.19;;;5.32;100.00
59951;BME280;45812;53.540;9.774;2023-03-26T06:12:54;100325.88;;;5.37;100.00
59951;BME280;45812;53.540;9.774;2023-03-26T06:15:19;100315.19;;;5.39;100.00
59951;BME280;45812;53.540;9.774;2023-03-26T06:17:45;100320.59;;;5.37;100.00
59951;BME280;45812;53.540;9.774;2023-03-26T06:20:11;100321.28;;;5.59;100.00
59951;BME280;45812;53.540;9.774;2023-03-26T06:22:36;100324.28;;;5.73;100.00
59951;BME280;45812;53.540;9.774;2023-03-26T06:25:01;100318.59;;;5.78;100.00
59951;BME280;45812;53.540;9.774;2023-03-26T06:27:27;100322.59;;;5.82;100.00
59951;BME280;45812;53.540;9.774;2023-03-26T06:29:52;100327.44;;;5.87;100.00
59951;BME280;45812;53.540;9.774;2023-03-26T06:32:17;100321.63;;;5.83;100.00
59951;BME280;45812;53.540;9.774;2023-03-26T06:34:42;100328.72;;;5.83;100.00
59951;BME280;45812;53.540;9.774;2023-03-26T06:37:08;100329.03;;;5.70;100.00
59951;BME280;45812;53.540;9.774;2023-03-26T06:39:33;100321.94;;;5.70;100.00
59951;BME280;45812;53.540;9.774;2023-03-26T06:41:58;100326.81;;;5.65;100.00
59951;BME280;45812;53.540;9.774;2023-03-26T06:44:23;100330.78;;;5.89;100.00
59951;BME280;45812;53.540;9.774;2023-03-26T06:46:49;100334.13;;;6.00;100.00
59951;BME280;45812;53.540;9.774;2023-03-26T06:49:14;100343.50;;;6.13;100.00
59951;BME280;45812;53.540;9.774;2023-03-26T06:51:40;100335.63;;;6.03;100.00
59951;BME280;45812;53.540;9.774;2023-03-26T06:54:05;100346.28;;;6.11;100.00
59951;BME280;45812;53.540;9.774;2023-03-26T06:56:30;100341.53;;;6.24;100.00
59951;BME280;45812;53.540;9.774;2023-03-26T06:58:56;100337.22;;;6.23;100.00
59951;BME280;45812;53.540;9.774;2023-03-26T07:01:21;100344.09;;;6.06;93.35
59951;BME280;45812;53.540;9.774;2023-03-26T07:03:46;100347.19;;;6.02;96.75
59951;BME280;45812;53.540;9.774;2023-03-26T07:06:12;100348.00;;;6.02;95.50
59951;BME280;45812;53.540;9.774;2023-03-26T07:08:37;100347.69;;;6.15;93.66
59951;BME280;45812;53.540;9.774;2023-03-26T07:11:02;100344.75;;;6.18;93.12
59951;BME280;45812;53.540;9.774;2023-03-26T07:13:28;100348.78;;;6.13;91.08
59951;BME280;45812;53.540;9.774;2023-03-26T07:15:53;100346.59;;;6.08;89.78
59951;BME280;45812;53.540;9.774;2023-03-26T07:18:18;100341.59;;;6.05;90.57
59951;BME280;45812;53.540;9.774;2023-03-26T07:20:44;100341.06;;;6.01;88.38
59951;BME280;45812;53.540;9.774;2023-03-26T07:23:11;100350.81;;;6.01;88.07
59951;BME280;45812;53.540;9.774;2023-03-26T07:25:37;100346.78;;;5.97;85.85
59951;BME280;45812;53.540;9.774;2023-03-26T07:28:11;100359.44;;;5.93;86.07
59951;BME280;45812;53.540;9.774;2023-03-26T07:31:10;100353.59;;;5.99;86.30
59951;BME280;45812;53.540;9.774;2023-03-26T07:33:44;100341.63;;;5.86;83.38
59951;BME280;45812;53.540;9.774;2023-03-26T07:36:34;100340.47;;;6.07;83.41
59951;BME280;45812;53.540;9.774;2023-03-26T07:39:50;100354.31;;;5.82;80.44
59951;BME280;45812;53.540;9.774;2023-03-26T07:45:13;100350.09;;;5.89;78.81
59951;BME280;45812;53.540;9.774;2023-03-26T07:47:41;100352.53;;;6.20;79.43
59951;BME280;45812;53.540;9.774;2023-03-26T07:50:13;100345.44;;;6.20;77.47
59951;BME280;45812;53.540;9.774;2023-03-26T07:52:39;100344.25;;;6.05;79.34
59951;BME280;45812;53.540;9.774;2023-03-26T07:55:05;100342.84;;;6.38;79.00
59951;BME280;45812;53.540;9.774;2023-03-26T08:00:20;100349.34;;;6.16;75.64
59951;BME280;45812;53.540;9.774;2023-03-26T08:03:12;100346.94;;;6.32;75.76
59951;BME280;45812;53.540;9.774;2023-03-26T08:05:51;100348.78;;;6.67;74.94
59951;BME280;45812;53.540;9.774;2023-03-26T08:08:51;100352.50;;;6.57;73.08
59951;BME280;45812;53.540;9.774;2023-03-26T08:11:39;100339.75;;;6.88;74.61
59951;BME280;45812;53.540;9.774;2023-03-26T08:14:39;100349.88;;;6.75;72.92
59951;BME280;45812;53.540;9.774;2023-03-26T08:17:13;100352.16;;;6.70;73.79
59951;BME280;45812;53.540;9.774;2023-03-26T08:19:50;100342.03;;;6.83;74.36
59951;BME280;45812;53.540;9.774;2023-03-26T08:22:30;100357.78;;;6.57;76.50
59951;BME280;45812;53.540;9.774;2023-03-26T08:27:40;100356.66;;;6.59;73.26
59951;BME280;45812;53.540;9.774;2023-03-26T08:30:19;100357.31;;;6.89;73.52
59951;BME280;45812;53.540;9.774;2023-03-26T08:32:52;100362.31;;;6.92;72.49
59951;BME280;45812;53.540;9.774;2023-03-26T08:35:18;100361.09;;;7.04;70.19
59951;BME280;45812;53.540;9.774;2023-03-26T08:37:43;100350.97;;;7.17;69.64
59951;BME280;45812;53.540;9.774;2023-03-26T08:40:10;100361.59;;;7.43;69.58
59951;BME280;45812;53.540;9.774;2023-03-26T08:43:32;100364.38;;;7.59;70.69
59951;BME280;45812;53.540;9.774;2023-03-26T09:04:18;100345.97;;;8.36;62.42
59951;BME280;45812;53.540;9.774;2023-03-26T09:26:03;100354.41;;;10.28;52.39
59951;BME280;45812;53.540;9.774;2023-03-26T09:36:50;100357.72;;;10.22;49.18
59951;BME280;45812;53.540;9.774;2023-03-26T09:39:40;100344.88;;;10.96;48.55
59951;BME280;45812;53.540;9.774;2023-03-26T09:42:23;100357.28;;;12.90;44.12
59951;BME280;45812;53.540;9.774;2023-03-26T09:51:06;100367.16;;;12.09;45.03
59951;BME280;45812;53.540;9.774;2023-03-26T09:53:55;100372.19;;;12.04;45.58
59951;BME280;45812;53.540;9.774;2023-03-26T10:02:19;100372.41;;;12.83;43.04
59951;BME280;45812;53.540;9.774;2023-03-26T10:05:07;100372.00;;;12.05;44.39
59951;BME280;45812;53.540;9.774;2023-03-26T10:16:37;100376.53;;;11.44;45.10
59951;BME280;45812;53.540;9.774;2023-03-26T10:25:42;100375.13;;;15.20;36.69
59951;BME280;45812;53.540;9.774;2023-03-26T10:28:06;100382.56;;;15.11;37.40
59951;BME280;45812;53.540;9.774;2023-03-26T10:36:33;100380.44;;;13.61;40.74
59951;BME280;45812;53.540;9.774;2023-03-26T10:52:23;100372.69;;;17.26;33.55
59951;BME280;45812;53.540;9.774;2023-03-26T10:55:09;100368.66;;;17.74;34.25
59951;BME280;45812;53.540;9.774;2023-03-26T10:57:55;100364.47;;;17.78;32.73
59951;BME280;45812;53.540;9.774;2023-03-26T11:00:24;100359.31;;;20.75;28.48
59951;BME280;45812;53.540;9.774;2023-03-26T11:03:09;100357.38;;;19.53;29.90
59951;BME280;45812;53.540;9.774;2023-03-26T11:11:44;100367.00;;;21.52;28.01
59951;BME280;45812;53.540;9.774;2023-03-26T11:23:01;100359.59;;;21.18;26.33
59951;BME280;45812;53.540;9.774;2023-03-26T11:28:19;100363.72;;;18.51;31.29
59951;BME280;45812;53.540;9.774;2023-03-26T11:31:04;100358.53;;;21.48;27.35
59951;BME280;45812;53.540;9.774;2023-03-26T11:33:40;100369.50;;;22.25;25.43
59951;BME280;45812;53.540;9.774;2023-03-26T11:36:12;100368.47;;;23.19;24.39
59951;BME280;45812;53.540;9.774;2023-03-26T11:38:43;100357.50;;;22.38;24.61
59951;BME280;45812;53.540;9.774;2023-03-26T11:41:19;100360.19;;;25.04;22.73
59951;BME280;45812;53.540;9.774;2023-03-26T11:43:49;100354.91;;;26.55;20.11
59951;BME280;45812;53.540;9.774;2023-03-26T11:46:18;100355.75;;;27.84;18.91
59951;BME280;45812;53.540;9.774;2023-03-26T11:48:47;100353.91;;;28.56;18.23
59951;BME280;45812;53.540;9.774;2023-03-26T11:51:41;100346.63;;;29.92;16.90
59951;BME280;45812;53.540;9.774;2023-03-26T11:54:10;100344.94;;;27.97;19.48
59951;BME280;45812;53.540;9.774;2023-03-26T11:57:07;100344.72;;;25.56;20.96
59951;BME280;45812;53.540;9.774;2023-03-26T12:04:38;100328.56;;;26.25;20.06
59951;BME280;45812;53.540;9.774;2023-03-26T12:07:30;100337.91;;;27.57;19.49
59951;BME280;45812;53.540;9.774;2023-03-26T12:09:58;100342.84;;;29.41;17.65
59951;BME280;45812;53.540;9.774;2023-03-26T12:12:27;100344.75;;;29.41;17.44
59951;BME280;45812;53.540;9.774;2023-03-26T12:14:53;100343.31;;;27.67;18.23
59951;BME280;45812;53.540;9.774;2023-03-26T12:17:34;100340.94;;;25.72;20.72
59951;BME280;45812;53.540;9.774;2023-03-26T12:20:00;100346.06;;;25.84;21.13
59951;BME280;45812;53.540;9.774;2023-03-26T12:22:35;100344.66;;;28.23;19.08
59951;BME280;45812;53.540;9.774;2023-03-26T12:25:13;100341.97;;;29.27;16.78
59951;BME280;45812;53.540;9.774;2023-03-26T12:28:04;100345.53;;;29.46;16.15
59951;BME280;45812;53.540;9.774;2023-03-26T12:33:26;100336.75;;;30.51;15.50
59951;BME280;45812;53.540;9.774;2023-03-26T12:35:53;100342.06;;;29.54;17.30
59951;BME280;45812;53.540;9.774;2023-03-26T12:41:18;100330.44;;;29.44;16.95
59951;BME280;45812;53.540;9.774;2023-03-26T12:43:44;100331.66;;;28.39;17.76
59951;BME280;45812;53.540;9.774;2023-03-26T12:46:32;100328.69;;;28.06;18.45
59951;BME280;45812;53.540;9.774;2023-03-26T12:49:03;100332.69;;;28.67;18.26
59951;BME280;45812;53.540;9.774;2023-03-26T12:51:39;100332.47;;;30.44;16.38
59951;BME280;45812;53.540;9.774;2023-03-26T12:54:32;100328.88;;;32.28;15.78
59951;BME280;45812;53.540;9.774;2023-03-26T12:59:52;100335.34;;;33.41;13.92
59951;BME280;45812;53.540;9.774;2023-03-26T13:05:28;100340.38;;;32.30;15.14
59951;BME280;45812;53.540;9.774;2023-03-26T13:08:05;100336.50;;;31.47;14.83
59951;BME280;45812;53.540;9.774;2023-03-26T13:10:44;100334.19;;;32.81;13.96
59951;BME280;45812;53.540;9.774;2023-03-26T13:13:34;100326.22;;;34.13;13.51
59951;BME280;45812;53.540;9.774;2023-03-26T13:19:16;100326.03;;;32.68;13.14
59951;BME280;45812;53.540;9.774;2023-03-26T13:21:42;100328.81;;;31.35;13.70
59951;BME280;45812;53.540;9.774;2023-03-26T13:24:33;100328.00;;;28.67;15.98
59951;BME280;45812;53.540;9.774;2023-03-26T13:30:00;100327.13;;;29.93;15.12
59951;BME280;45812;53.540;9.774;2023-03-26T13:33:06;100318.66;;;29.62;15.72
59951;BME280;45812;53.540;9.774;2023-03-26T13:39:02;100314.09;;;32.24;14.04
59951;BME280;45812;53.540;9.774;2023-03-26T13:46:37;100316.22;;;31.87;14.56
59951;BME280;45812;53.540;9.774;2023-03-26T13:51:42;100306.44;;;31.50;14.59
59951;BME280;45812;53.540;9.774;2023-03-26T13:56:53;100308.69;;;32.59;14.65
59951;BME280;45812;53.540;9.774;2023-03-26T14:00:08;100305.22;;;32.27;14.22
59951;BME280;45812;53.540;9.774;2023-03-26T14:02:16;100318.28;;;33.56;13.75
59951;BME280;45812;53.540;9.774;2023-03-26T14:04:46;100315.28;;;35.05;12.49
59951;BME280;45812;53.540;9.774;2023-03-26T14:07:17;100312.78;;;34.91;12.07
59951;BME280;45812;53.540;9.774;2023-03-26T14:09:57;100317.13;;;33.66;12.89
59951;BME280;45812;53.540;9.774;2023-03-26T14:12:58;100314.38;;;32.71;13.56
59951;BME280;45812;53.540;9.774;2023-03-26T14:15:30;100308.09;;;31.60;14.36
59951;BME280;45812;53.540;9.774;2023-03-26T14:24:26;100323.47;;;34.13;13.00
59951;BME280;45812;53.540;9.774;2023-03-26T14:27:03;100326.44;;;35.30;12.58
59951;BME280;45812;53.540;9.774;2023-03-26T14:29:45;100325.72;;;33.64;12.74
59951;BME280;45812;53.540;9.774;2023-03-26T14:32:23;100327.16;;;32.10;14.60
59951;BME280;45812;53.540;9.774;2023-03-26T14:35:06;100317.13;;;32.62;13.88
59951;BME280;45812;53.540;9.774;2023-03-26T14:40:28;100319.88;;;31.52;14.22
59951;BME280;45812;53.540;9.774;2023-03-26T14:45:49;100316.09;;;25.89;19.19
59951;BME280;45812;53.540;9.774;2023-03-26T14:48:29;100316.94;;;23.24;22.01
59951;BME280;45812;53.540;9.774;2023-03-26T14:53:44;100329.25;;;21.16;25.88
59951;BME280;45812;53.540;9.774;2023-03-26T15:08:39;100328.31;;;18.95;29.34
59951;BME280;45812;53.540;9.774;2023-03-26T15:17:31;100334.25;;;21.70;25.33
59951;BME280;45812;53.540;9.774;2023-03-26T15:23:29;100329.34;;;17.91;30.69
59951;BME280;45812;53.540;9.774;2023-03-26T15:29:01;100336.88;;;19.22;28.82
59951;BME280;45812;53.540;9.774;2023-03-26T15:43:09;100330.53;;;23.56;22.44
59951;BME280;45812;53.540;9.774;2023-03-26T15:45:44;100331.47;;;24.66;21.85
59951;BME280;45812;53.540;9.774;2023-03-26T15:53:53;100338.03;;;26.48;19.12
59951;BME280;45812;53.540;9.774;2023-03-26T15:59:20;100339.06;;;27.17;18.37
59951;BME280;45812;53.540;9.774;2023-03-26T16:02:39;100345.72;;;28.03;17.64
59951;BME280;45812;53.540;9.774;2023-03-26T16:05:06;100345.31;;;29.05;16.84
59951;BME280;45812;53.540;9.774;2023-03-26T16:18:40;100348.00;;;25.38;19.69
59951;BME280;45812;53.540;9.774;2023-03-26T16:50:41;100379.16;;;16.81;30.40
59951;BME280;45812;53.540;9.774;2023-03-26T16:53:22;100371.25;;;16.15;30.59
59951;BME280;45812;53.540;9.774;2023-03-26T16:56:05;100381.41;;;15.86;31.07
59951;BME280;45812;53.540;9.774;2023-03-26T17:01:37;100390.94;;;15.82;31.55
59951;BME280;45812;53.540;9.774;2023-03-26T17:04:15;100401.84;;;14.45;34.09
59951;BME280;45812;53.540;9.774;2023-03-26T17:06:55;100408.72;;;13.49;36.92
59951;BME280;45812;53.540;9.774;2023-03-26T17:15:05;100419.97;;;13.23;39.08
59951;BME280;45812;53.540;9.774;2023-03-26T17:23:09;100424.97;;;11.25;44.85
59951;BME280;45812;53.540;9.774;2023-03-26T17:26:02;100426.19;;;10.83;46.53
59951;BME280;45812;53.540;9.774;2023-03-26T17:31:50;100434.22;;;9.63;51.96
59951;BME280;45812;53.540;9.774;2023-03-26T17:37:24;100443.28;;;8.69;60.16
59951;BME280;45812;53.540;9.774;2023-03-26T17:42:27;100444.25;;;8.34;64.55
59951;BME280;45812;53.540;9.774;2023-03-26T17:44:57;100460.81;;;8.10;64.16
59951;BME280;45812;53.540;9.774;2023-03-26T17:47:37;100465.59;;;8.07;66.15
59951;BME280;45812;53.540;9.774;2023-03-26T17:50:13;100459.38;;;7.98;66.30
59951;BME280;45812;53.540;9.774;2023-03-26T17:52:44;100464.66;;;7.72;66.59
59951;BME280;45812;53.540;9.774;2023-03-26T17:55:15;100463.88;;;7.62;68.13
59951;BME280;45812;53.540;9.774;2023-03-26T17:57:44;100476.53;;;7.50;68.84
59951;BME280;45812;53.540;9.774;2023-03-26T18:00:30;100482.34;;;7.36;70.99
59951;BME280;45812;53.540;9.774;2023-03-26T18:03:22;100480.66;;;7.17;72.05